Terminal Aerodrome Forecast
Issued by NWS Bismarck, ND

Home | Current Version | Previous Version | Text Only | Print | Product List | Glossary On
Versions: 1 2 3 4 5 6 7 8 9 10 11 12 13 14 15 16 17 18 19 20 21
000
FTUS43 KBIS 250400 AAB
TAFBIS
TAF AMD
KBIS 250420Z 2504/2524 15011KT P6SM VCTS BKN090CB BKN150
      TEMPO 2504/2505 VRB20G30KT -TSRA OVC090CB
     FM250700 36011KT P6SM FEW120
     FM251000 32012KT P6SM SKC
     FM251800 28013G21KT P6SM SKC=

USA.gov is the U.S. government's official web portal to all federal, state and local government web resources and services.